sensor_id;sensor_type;location;lat;lon;timestamp;P1;durP1;ratioP1;P2;durP2;ratioP2
28373;SDS011;15616;40.148;-102.718;2022-11-14T00:02:06;3.25;;;1.50;;
28373;SDS011;15616;40.148;-102.718;2022-11-14T00:04:32;2.67;;;1.60;;
28373;SDS011;15616;40.148;-102.718;2022-11-14T00:06:58;2.72;;;1.60;;
28373;SDS011;15616;40.148;-102.718;2022-11-14T00:09:27;2.70;;;1.60;;
28373;SDS011;15616;40.148;-102.718;2022-11-14T00:11:53;2.65;;;1.40;;
28373;SDS011;15616;40.148;-102.718;2022-11-14T00:14:20;2.58;;;1.65;;
28373;SDS011;15616;40.148;-102.718;2022-11-14T00:16:46;4.28;;;1.58;;
28373;SDS011;15616;40.148;-102.718;2022-11-14T00:19:12;2.83;;;1.60;;
28373;SDS011;15616;40.148;-102.718;2022-11-14T00:21:38;6.25;;;1.35;;
28373;SDS011;15616;40.148;-102.718;2022-11-14T00:24:04;2.97;;;1.50;;
28373;SDS011;15616;40.148;-102.718;2022-11-14T00:26:30;4.25;;;1.90;;
28373;SDS011;15616;40.148;-102.718;2022-11-14T00:28:56;3.03;;;1.63;;
28373;SDS011;15616;40.148;-102.718;2022-11-14T00:31:22;4.28;;;1.60;;
28373;SDS011;15616;40.148;-102.718;2022-11-14T00:33:48;3.00;;;1.67;;
28373;SDS011;15616;40.148;-102.718;2022-11-14T00:36:14;2.40;;;1.55;;
28373;SDS011;15616;40.148;-102.718;2022-11-14T00:38:39;2.47;;;1.40;;
28373;SDS011;15616;40.148;-102.718;2022-11-14T00:41:05;2.90;;;1.70;;
28373;SDS011;15616;40.148;-102.718;2022-11-14T00:43:31;3.50;;;1.40;;
28373;SDS011;15616;40.148;-102.718;2022-11-14T00:45:57;3.33;;;1.52;;
28373;SDS011;15616;40.148;-102.718;2022-11-14T00:48:23;2.47;;;1.60;;
28373;SDS011;15616;40.148;-102.718;2022-11-14T00:50:49;4.75;;;1.50;;
28373;SDS011;15616;40.148;-102.718;2022-11-14T00:53:15;2.40;;;1.65;;
28373;SDS011;15616;40.148;-102.718;2022-11-14T00:55:41;3.08;;;1.70;;
28373;SDS011;15616;40.148;-102.718;2022-11-14T00:58:07;2.65;;;1.40;;
28373;SDS011;15616;40.148;-102.718;2022-11-14T01:00:34;2.58;;;1.60;;
28373;SDS011;15616;40.148;-102.718;2022-11-14T01:03:00;2.35;;;1.40;;
28373;SDS011;15616;40.148;-102.718;2022-11-14T01:05:26;2.42;;;1.50;;
28373;SDS011;15616;40.148;-102.718;2022-11-14T01:07:52;2.67;;;1.58;;
28373;SDS011;15616;40.148;-102.718;2022-11-14T01:10:19;2.53;;;1.60;;
28373;SDS011;15616;40.148;-102.718;2022-11-14T01:12:45;2.97;;;1.70;;
28373;SDS011;15616;40.148;-102.718;2022-11-14T01:15:11;4.85;;;1.80;;
28373;SDS011;15616;40.148;-102.718;2022-11-14T01:17:37;3.28;;;1.70;;
28373;SDS011;15616;40.148;-102.718;2022-11-14T01:20:04;2.83;;;1.52;;
28373;SDS011;15616;40.148;-102.718;2022-11-14T01:22:30;3.08;;;1.73;;
28373;SDS011;15616;40.148;-102.718;2022-11-14T01:24:56;2.78;;;1.40;;
28373;SDS011;15616;40.148;-102.718;2022-11-14T01:27:23;2.42;;;1.42;;
28373;SDS011;15616;40.148;-102.718;2022-11-14T01:29:49;2.88;;;1.58;;
28373;SDS011;15616;40.148;-102.718;2022-11-14T01:32:15;3.03;;;1.40;;
28373;SDS011;15616;40.148;-102.718;2022-11-14T01:34:41;3.22;;;1.77;;
28373;SDS011;15616;40.148;-102.718;2022-11-14T01:37:07;2.03;;;1.33;;
28373;SDS011;15616;40.148;-102.718;2022-11-14T01:39:33;2.40;;;1.58;;
28373;SDS011;15616;40.148;-102.718;2022-11-14T01:41:59;3.65;;;1.70;;
28373;SDS011;15616;40.148;-102.718;2022-11-14T01:47:11;2.63;;;1.48;;
28373;SDS011;15616;40.148;-102.718;2022-11-14T01:49:41;2.17;;;1.50;;
28373;SDS011;15616;40.148;-102.718;2022-11-14T01:52:13;3.28;;;1.70;;
28373;SDS011;15616;40.148;-102.718;2022-11-14T01:54:41;3.00;;;1.50;;
28373;SDS011;15616;40.148;-102.718;2022-11-14T01:57:11;2.47;;;1.58;;
28373;SDS011;15616;40.148;-102.718;2022-11-14T01:59:42;2.10;;;1.55;;
28373;SDS011;15616;40.148;-102.718;2022-11-14T02:02:17;2.75;;;1.70;;
28373;SDS011;15616;40.148;-102.718;2022-11-14T02:04:48;2.42;;;1.40;;
28373;SDS011;15616;40.148;-102.718;2022-11-14T02:07:20;3.45;;;1.60;;
28373;SDS011;15616;40.148;-102.718;2022-11-14T02:09:49;3.35;;;1.60;;
28373;SDS011;15616;40.148;-102.718;2022-11-14T02:12:16;2.88;;;1.50;;
28373;SDS011;15616;40.148;-102.718;2022-11-14T02:14:43;3.08;;;1.73;;
28373;SDS011;15616;40.148;-102.718;2022-11-14T02:17:11;3.63;;;2.00;;
28373;SDS011;15616;40.148;-102.718;2022-11-14T02:20:38;2.83;;;1.45;;
28373;SDS011;15616;40.148;-102.718;2022-11-14T02:22:33;3.67;;;1.88;;
28373;SDS011;15616;40.148;-102.718;2022-11-14T02:24:59;2.67;;;1.52;;
28373;SDS011;15616;40.148;-102.718;2022-11-14T02:27:26;3.22;;;1.48;;
28373;SDS011;15616;40.148;-102.718;2022-11-14T02:29:52;3.22;;;1.48;;
28373;SDS011;15616;40.148;-102.718;2022-11-14T02:32:18;2.40;;;1.40;;
28373;SDS011;15616;40.148;-102.718;2022-11-14T02:34:45;4.50;;;1.60;;
28373;SDS011;15616;40.148;-102.718;2022-11-14T02:37:11;2.85;;;1.45;;
28373;SDS011;15616;40.148;-102.718;2022-11-14T02:39:37;2.35;;;1.50;;
28373;SDS011;15616;40.148;-102.718;2022-11-14T02:42:03;2.17;;;1.50;;
28373;SDS011;15616;40.148;-102.718;2022-11-14T02:44:29;2.63;;;1.50;;
28373;SDS011;15616;40.148;-102.718;2022-11-14T02:46:54;2.90;;;1.70;;
28373;SDS011;15616;40.148;-102.718;2022-11-14T02:49:20;3.42;;;1.60;;
28373;SDS011;15616;40.148;-102.718;2022-11-14T02:51:46;2.92;;;1.60;;
28373;SDS011;15616;40.148;-102.718;2022-11-14T02:54:12;2.20;;;1.30;;
28373;SDS011;15616;40.148;-102.718;2022-11-14T02:56:38;2.63;;;1.48;;
28373;SDS011;15616;40.148;-102.718;2022-11-14T02:59:04;2.75;;;1.60;;
28373;SDS011;15616;40.148;-102.718;2022-11-14T03:01:30;5.13;;;1.60;;
28373;SDS011;15616;40.148;-102.718;2022-11-14T03:03:55;2.30;;;1.50;;
28373;SDS011;15616;40.148;-102.718;2022-11-14T03:06:21;2.80;;;1.48;;
28373;SDS011;15616;40.148;-102.718;2022-11-14T03:08:47;2.40;;;1.40;;
28373;SDS011;15616;40.148;-102.718;2022-11-14T03:11:13;3.90;;;1.73;;
28373;SDS011;15616;40.148;-102.718;2022-11-14T03:13:39;3.38;;;1.70;;
28373;SDS011;15616;40.148;-102.718;2022-11-14T03:16:08;3.80;;;1.60;;
28373;SDS011;15616;40.148;-102.718;2022-11-14T03:18:35;2.42;;;1.42;;
28373;SDS011;15616;40.148;-102.718;2022-11-14T03:21:05;2.70;;;1.58;;
28373;SDS011;15616;40.148;-102.718;2022-11-14T03:23:32;2.72;;;1.50;;
28373;SDS011;15616;40.148;-102.718;2022-11-14T03:26:01;2.50;;;1.42;;
28373;SDS011;15616;40.148;-102.718;2022-11-14T03:28:29;2.63;;;1.40;;
28373;SDS011;15616;40.148;-102.718;2022-11-14T03:30:55;2.97;;;1.58;;
28373;SDS011;15616;40.148;-102.718;2022-11-14T03:33:21;2.15;;;1.42;;
28373;SDS011;15616;40.148;-102.718;2022-11-14T03:35:48;3.35;;;1.50;;
28373;SDS011;15616;40.148;-102.718;2022-11-14T03:38:15;2.33;;;1.20;;
28373;SDS011;15616;40.148;-102.718;2022-11-14T03:40:41;3.15;;;1.70;;
28373;SDS011;15616;40.148;-102.718;2022-11-14T03:43:07;3.88;;;1.55;;
28373;SDS011;15616;40.148;-102.718;2022-11-14T03:45:35;2.47;;;1.52;;
28373;SDS011;15616;40.148;-102.718;2022-11-14T03:48:01;2.30;;;1.40;;
28373;SDS011;15616;40.148;-102.718;2022-11-14T03:50:28;2.78;;;1.52;;
28373;SDS011;15616;40.148;-102.718;2022-11-14T03:52:54;2.47;;;1.40;;
28373;SDS011;15616;40.148;-102.718;2022-11-14T03:55:19;2.35;;;1.60;;
28373;SDS011;15616;40.148;-102.718;2022-11-14T03:57:45;2.92;;;1.50;;
28373;SDS011;15616;40.148;-102.718;2022-11-14T04:00:11;2.72;;;1.70;;
28373;SDS011;15616;40.148;-102.718;2022-11-14T04:02:37;3.65;;;1.88;;
28373;SDS011;15616;40.148;-102.718;2022-11-14T04:05:03;2.80;;;1.50;;
28373;SDS011;15616;40.148;-102.718;2022-11-14T04:07:29;5.30;;;1.50;;
28373;SDS011;15616;40.148;-102.718;2022-11-14T04:09:55;2.05;;;1.33;;
28373;SDS011;15616;40.148;-102.718;2022-11-14T04:12:21;2.50;;;1.50;;
28373;SDS011;15616;40.148;-102.718;2022-11-14T04:14:47;3.40;;;1.60;;
28373;SDS011;15616;40.148;-102.718;2022-11-14T04:17:12;2.75;;;1.58;;
28373;SDS011;15616;40.148;-102.718;2022-11-14T04:19:38;2.28;;;1.30;;
28373;SDS011;15616;40.148;-102.718;2022-11-14T04:22:04;1.83;;;1.30;;
28373;SDS011;15616;40.148;-102.718;2022-11-14T04:24:30;2.90;;;1.45;;
28373;SDS011;15616;40.148;-102.718;2022-11-14T04:26:56;1.98;;;1.33;;
28373;SDS011;15616;40.148;-102.718;2022-11-14T04:29:22;3.40;;;1.70;;
28373;SDS011;15616;40.148;-102.718;2022-11-14T04:31:48;3.17;;;1.77;;
28373;SDS011;15616;40.148;-102.718;2022-11-14T04:34:14;2.83;;;1.58;;
28373;SDS011;15616;40.148;-102.718;2022-11-14T04:36:40;2.95;;;1.50;;
28373;SDS011;15616;40.148;-102.718;2022-11-14T04:39:07;3.15;;;1.73;;
28373;SDS011;15616;40.148;-102.718;2022-11-14T04:41:32;3.97;;;1.80;;
28373;SDS011;15616;40.148;-102.718;2022-11-14T04:43:58;2.85;;;1.50;;
28373;SDS011;15616;40.148;-102.718;2022-11-14T04:46:24;2.95;;;1.42;;
28373;SDS011;15616;40.148;-102.718;2022-11-14T04:48:50;2.22;;;1.40;;
28373;SDS011;15616;40.148;-102.718;2022-11-14T04:51:16;2.63;;;1.40;;
28373;SDS011;15616;40.148;-102.718;2022-11-14T04:53:42;3.40;;;1.63;;
28373;SDS011;15616;40.148;-102.718;2022-11-14T04:56:08;2.05;;;1.40;;
28373;SDS011;15616;40.148;-102.718;2022-11-14T04:58:34;2.47;;;1.45;;
28373;SDS011;15616;40.148;-102.718;2022-11-14T05:01:06;2.83;;;1.67;;
28373;SDS011;15616;40.148;-102.718;2022-11-14T05:03:35;2.50;;;1.75;;
28373;SDS011;15616;40.148;-102.718;2022-11-14T05:06:01;2.53;;;1.50;;
28373;SDS011;15616;40.148;-102.718;2022-11-14T05:08:27;2.33;;;1.40;;
28373;SDS011;15616;40.148;-102.718;2022-11-14T05:10:54;3.50;;;1.63;;
28373;SDS011;15616;40.148;-102.718;2022-11-14T05:13:20;2.92;;;1.40;;
28373;SDS011;15616;40.148;-102.718;2022-11-14T05:15:46;2.72;;;1.40;;
28373;SDS011;15616;40.148;-102.718;2022-11-14T05:18:11;2.80;;;1.63;;
28373;SDS011;15616;40.148;-102.718;2022-11-14T05:20:37;2.20;;;1.50;;
28373;SDS011;15616;40.148;-102.718;2022-11-14T05:23:03;2.15;;;1.40;;
28373;SDS011;15616;40.148;-102.718;2022-11-14T05:25:29;1.98;;;1.30;;
28373;SDS011;15616;40.148;-102.718;2022-11-14T05:27:55;6.20;;;1.50;;
28373;SDS011;15616;40.148;-102.718;2022-11-14T05:30:21;2.75;;;1.60;;
28373;SDS011;15616;40.148;-102.718;2022-11-14T05:32:47;2.90;;;1.58;;
28373;SDS011;15616;40.148;-102.718;2022-11-14T05:35:16;2.78;;;1.52;;
28373;SDS011;15616;40.148;-102.718;2022-11-14T05:37:42;2.85;;;1.60;;
28373;SDS011;15616;40.148;-102.718;2022-11-14T05:40:08;2.63;;;1.67;;
28373;SDS011;15616;40.148;-102.718;2022-11-14T05:42:34;2.42;;;1.50;;
28373;SDS011;15616;40.148;-102.718;2022-11-14T05:45:00;2.15;;;1.40;;
28373;SDS011;15616;40.148;-102.718;2022-11-14T05:47:26;2.70;;;1.50;;
28373;SDS011;15616;40.148;-102.718;2022-11-14T05:49:52;3.17;;;1.60;;
28373;SDS011;15616;40.148;-102.718;2022-11-14T05:52:18;3.20;;;1.50;;
28373;SDS011;15616;40.148;-102.718;2022-11-14T05:54:44;1.85;;;1.30;;
28373;SDS011;15616;40.148;-102.718;2022-11-14T05:57:10;5.15;;;1.65;;
28373;SDS011;15616;40.148;-102.718;2022-11-14T05:59:36;3.67;;;1.40;;
28373;SDS011;15616;40.148;-102.718;2022-11-14T06:02:02;2.30;;;1.30;;
28373;SDS011;15616;40.148;-102.718;2022-11-14T06:04:28;3.63;;;1.50;;
28373;SDS011;15616;40.148;-102.718;2022-11-14T06:06:54;2.22;;;1.30;;
28373;SDS011;15616;40.148;-102.718;2022-11-14T06:09:20;29.88;;;2.75;;
28373;SDS011;15616;40.148;-102.718;2022-11-14T06:11:46;2.80;;;1.50;;
28373;SDS011;15616;40.148;-102.718;2022-11-14T06:14:11;5.13;;;1.50;;
28373;SDS011;15616;40.148;-102.718;2022-11-14T06:16:38;4.13;;;1.60;;
28373;SDS011;15616;40.148;-102.718;2022-11-14T06:19:03;2.42;;;1.55;;
28373;SDS011;15616;40.148;-102.718;2022-11-14T06:21:30;3.00;;;1.63;;
28373;SDS011;15616;40.148;-102.718;2022-11-14T06:23:56;2.22;;;1.50;;
28373;SDS011;15616;40.148;-102.718;2022-11-14T06:26:23;5.78;;;1.70;;
28373;SDS011;15616;40.148;-102.718;2022-11-14T06:28:56;2.97;;;1.63;;
28373;SDS011;15616;40.148;-102.718;2022-11-14T06:31:23;4.70;;;1.50;;
28373;SDS011;15616;40.148;-102.718;2022-11-14T06:33:50;2.22;;;1.40;;
28373;SDS011;15616;40.148;-102.718;2022-11-14T06:36:16;2.65;;;1.70;;
28373;SDS011;15616;40.148;-102.718;2022-11-14T06:38:42;5.38;;;1.67;;
28373;SDS011;15616;40.148;-102.718;2022-11-14T06:41:09;6.10;;;1.48;;
28373;SDS011;15616;40.148;-102.718;2022-11-14T06:43:38;3.53;;;1.52;;
28373;SDS011;15616;40.148;-102.718;2022-11-14T06:46:06;8.02;;;1.75;;
28373;SDS011;15616;40.148;-102.718;2022-11-14T06:48:33;2.53;;;1.38;;
28373;SDS011;15616;40.148;-102.718;2022-11-14T06:51:00;7.57;;;1.60;;
28373;SDS011;15616;40.148;-102.718;2022-11-14T06:53:28;7.53;;;2.00;;
28373;SDS011;15616;40.148;-102.718;2022-11-14T06:55:56;6.68;;;1.90;;
28373;SDS011;15616;40.148;-102.718;2022-11-14T06:58:24;7.40;;;1.80;;
28373;SDS011;15616;40.148;-102.718;2022-11-14T07:00:51;8.38;;;1.77;;
28373;SDS011;15616;40.148;-102.718;2022-11-14T07:03:17;10.93;;;2.08;;
28373;SDS011;15616;40.148;-102.718;2022-11-14T07:05:43;14.23;;;2.47;;
28373;SDS011;15616;40.148;-102.718;2022-11-14T07:08:09;15.98;;;2.40;;
28373;SDS011;15616;40.148;-102.718;2022-11-14T07:10:35;10.90;;;1.85;;
28373;SDS011;15616;40.148;-102.718;2022-11-14T07:13:01;9.45;;;1.90;;
28373;SDS011;15616;40.148;-102.718;2022-11-14T07:15:27;13.68;;;2.13;;
28373;SDS011;15616;40.148;-102.718;2022-11-14T07:17:53;13.27;;;2.40;;
28373;SDS011;15616;40.148;-102.718;2022-11-14T07:20:19;23.60;;;2.50;;
28373;SDS011;15616;40.148;-102.718;2022-11-14T07:22:45;15.38;;;2.00;;
28373;SDS011;15616;40.148;-102.718;2022-11-14T07:25:12;16.80;;;2.78;;
28373;SDS011;15616;40.148;-102.718;2022-11-14T07:27:38;22.30;;;2.22;;
28373;SDS011;15616;40.148;-102.718;2022-11-14T07:30:04;28.52;;;2.92;;
28373;SDS011;15616;40.148;-102.718;2022-11-14T07:32:31;16.30;;;2.50;;
28373;SDS011;15616;40.148;-102.718;2022-11-14T07:34:56;15.00;;;2.47;;
28373;SDS011;15616;40.148;-102.718;2022-11-14T07:37:22;12.98;;;2.83;;
28373;SDS011;15616;40.148;-102.718;2022-11-14T07:39:48;10.75;;;2.25;;
28373;SDS011;15616;40.148;-102.718;2022-11-14T07:42:14;14.75;;;2.72;;
28373;SDS011;15616;40.148;-102.718;2022-11-14T07:44:40;24.33;;;2.70;;
28373;SDS011;15616;40.148;-102.718;2022-11-14T07:47:06;20.40;;;2.50;;
28373;SDS011;15616;40.148;-102.718;2022-11-14T07:49:32;14.73;;;2.25;;
28373;SDS011;15616;40.148;-102.718;2022-11-14T07:51:58;16.45;;;2.38;;
28373;SDS011;15616;40.148;-102.718;2022-11-14T07:54:24;20.40;;;2.78;;
28373;SDS011;15616;40.148;-102.718;2022-11-14T07:56:50;13.10;;;2.53;;
28373;SDS011;15616;40.148;-102.718;2022-11-14T07:59:16;17.92;;;2.55;;
28373;SDS011;15616;40.148;-102.718;2022-11-14T08:01:42;13.85;;;2.45;;
28373;SDS011;15616;40.148;-102.718;2022-11-14T08:04:08;12.55;;;2.58;;
28373;SDS011;15616;40.148;-102.718;2022-11-14T08:06:34;12.68;;;2.67;;
28373;SDS011;15616;40.148;-102.718;2022-11-14T08:08:59;16.70;;;2.53;;
28373;SDS011;15616;40.148;-102.718;2022-11-14T08:11:25;13.82;;;2.42;;
28373;SDS011;15616;40.148;-102.718;2022-11-14T08:14:10;10.45;;;2.63;;
28373;SDS011;15616;40.148;-102.718;2022-11-14T08:16:36;22.50;;;2.53;;
28373;SDS011;15616;40.148;-102.718;2022-11-14T08:19:02;11.68;;;2.40;;
28373;SDS011;15616;40.148;-102.718;2022-11-14T08:21:28;10.13;;;2.58;;
28373;SDS011;15616;40.148;-102.718;2022-11-14T08:23:54;13.32;;;2.53;;
28373;SDS011;15616;40.148;-102.718;2022-11-14T08:26:19;12.13;;;2.67;;
28373;SDS011;15616;40.148;-102.718;2022-11-14T08:28:45;8.43;;;2.10;;
28373;SDS011;15616;40.148;-102.718;2022-11-14T08:31:11;20.63;;;3.03;;
28373;SDS011;15616;40.148;-102.718;2022-11-14T08:33:38;12.20;;;2.50;;
28373;SDS011;15616;40.148;-102.718;2022-11-14T08:36:04;17.17;;;2.53;;
28373;SDS011;15616;40.148;-102.718;2022-11-14T08:38:31;10.85;;;2.40;;
28373;SDS011;15616;40.148;-102.718;2022-11-14T08:41:01;22.50;;;2.65;;
28373;SDS011;15616;40.148;-102.718;2022-11-14T08:43:27;18.90;;;2.85;;
28373;SDS011;15616;40.148;-102.718;2022-11-14T08:46:00;13.20;;;2.35;;
28373;SDS011;15616;40.148;-102.718;2022-11-14T08:48:28;25.13;;;2.75;;
28373;SDS011;15616;40.148;-102.718;2022-11-14T08:50:55;16.25;;;2.33;;
28373;SDS011;15616;40.148;-102.718;2022-11-14T08:53:21;14.45;;;2.58;;
28373;SDS011;15616;40.148;-102.718;2022-11-14T08:55:47;14.10;;;2.63;;
28373;SDS011;15616;40.148;-102.718;2022-11-14T08:58:14;18.83;;;2.67;;
28373;SDS011;15616;40.148;-102.718;2022-11-14T09:00:40;20.73;;;3.47;;
28373;SDS011;15616;40.148;-102.718;2022-11-14T09:03:09;20.10;;;2.80;;
28373;SDS011;15616;40.148;-102.718;2022-11-14T09:05:38;22.20;;;2.83;;
28373;SDS011;15616;40.148;-102.718;2022-11-14T09:08:04;30.50;;;2.80;;
28373;SDS011;15616;40.148;-102.718;2022-11-14T09:10:30;23.17;;;2.60;;
28373;SDS011;15616;40.148;-102.718;2022-11-14T09:12:57;18.88;;;2.45;;
28373;SDS011;15616;40.148;-102.718;2022-11-14T09:15:26;14.20;;;3.08;;
28373;SDS011;15616;40.148;-102.718;2022-11-14T09:17:53;22.48;;;2.80;;
28373;SDS011;15616;40.148;-102.718;2022-11-14T09:20:20;21.85;;;3.22;;
28373;SDS011;15616;40.148;-102.718;2022-11-14T09:22:46;17.25;;;2.75;;
28373;SDS011;15616;40.148;-102.718;2022-11-14T09:25:12;16.85;;;2.58;;
28373;SDS011;15616;40.148;-102.718;2022-11-14T09:27:38;25.90;;;3.35;;
28373;SDS011;15616;40.148;-102.718;2022-11-14T09:30:04;19.88;;;2.88;;
28373;SDS011;15616;40.148;-102.718;2022-11-14T09:32:30;27.95;;;2.92;;
28373;SDS011;15616;40.148;-102.718;2022-11-14T09:34:56;32.17;;;3.47;;
28373;SDS011;15616;40.148;-102.718;2022-11-14T09:37:22;17.95;;;2.85;;
28373;SDS011;15616;40.148;-102.718;2022-11-14T09:39:48;20.65;;;2.60;;
28373;SDS011;15616;40.148;-102.718;2022-11-14T09:45:21;18.42;;;3.42;;
28373;SDS011;15616;40.148;-102.718;2022-11-14T09:47:49;22.08;;;2.65;;
28373;SDS011;15616;40.148;-102.718;2022-11-14T09:50:39;16.50;;;2.92;;
28373;SDS011;15616;40.148;-102.718;2022-11-14T09:53:16;23.83;;;3.10;;
28373;SDS011;15616;40.148;-102.718;2022-11-14T09:58:21;21.90;;;3.60;;
28373;SDS011;15616;40.148;-102.718;2022-11-14T10:01:00;20.60;;;3.40;;
28373;SDS011;15616;40.148;-102.718;2022-11-14T10:06:28;26.48;;;3.35;;
28373;SDS011;15616;40.148;-102.718;2022-11-14T10:09:13;20.48;;;3.17;;
28373;SDS011;15616;40.148;-102.718;2022-11-14T10:11:56;15.48;;;2.80;;
28373;SDS011;15616;40.148;-102.718;2022-11-14T10:14:37;20.75;;;3.10;;
28373;SDS011;15616;40.148;-102.718;2022-11-14T10:28:57;15.23;;;3.20;;
28373;SDS011;15616;40.148;-102.718;2022-11-14T10:31:50;18.17;;;3.17;;
28373;SDS011;15616;40.148;-102.718;2022-11-14T10:34:31;25.30;;;2.92;;
28373;SDS011;15616;40.148;-102.718;2022-11-14T10:37:10;18.50;;;2.80;;
28373;SDS011;15616;40.148;-102.718;2022-11-14T10:39:48;21.80;;;3.13;;
28373;SDS011;15616;40.148;-102.718;2022-11-14T10:42:39;18.00;;;2.60;;
28373;SDS011;15616;40.148;-102.718;2022-11-14T10:45:25;20.80;;;3.35;;
28373;SDS011;15616;40.148;-102.718;2022-11-14T10:48:08;21.90;;;3.30;;
28373;SDS011;15616;40.148;-102.718;2022-11-14T10:53:22;41.22;;;4.10;;
28373;SDS011;15616;40.148;-102.718;2022-11-14T10:55:59;19.65;;;3.58;;
28373;SDS011;15616;40.148;-102.718;2022-11-14T10:58:25;26.50;;;3.67;;
28373;SDS011;15616;40.148;-102.718;2022-11-14T11:00:51;23.27;;;3.20;;
28373;SDS011;15616;40.148;-102.718;2022-11-14T11:03:17;20.23;;;3.10;;
28373;SDS011;15616;40.148;-102.718;2022-11-14T11:05:45;14.32;;;2.88;;
28373;SDS011;15616;40.148;-102.718;2022-11-14T11:08:21;18.80;;;3.30;;
28373;SDS011;15616;40.148;-102.718;2022-11-14T11:11:12;19.58;;;3.03;;
28373;SDS011;15616;40.148;-102.718;2022-11-14T11:13:54;16.08;;;3.22;;
28373;SDS011;15616;40.148;-102.718;2022-11-14T11:16:24;13.60;;;2.97;;
28373;SDS011;15616;40.148;-102.718;2022-11-14T11:18:51;12.77;;;2.40;;
28373;SDS011;15616;40.148;-102.718;2022-11-14T11:21:18;20.60;;;3.30;;
28373;SDS011;15616;40.148;-102.718;2022-11-14T11:23:55;17.50;;;2.78;;
28373;SDS011;15616;40.148;-102.718;2022-11-14T11:26:22;17.17;;;2.65;;
28373;SDS011;15616;40.148;-102.718;2022-11-14T11:34:16;19.60;;;3.20;;
28373;SDS011;15616;40.148;-102.718;2022-11-14T11:36:49;17.10;;;2.95;;
28373;SDS011;15616;40.148;-102.718;2022-11-14T11:39:39;16.83;;;2.95;;
28373;SDS011;15616;40.148;-102.718;2022-11-14T11:42:07;9.05;;;2.45;;
28373;SDS011;15616;40.148;-102.718;2022-11-14T11:44:42;23.95;;;3.45;;
28373;SDS011;15616;40.148;-102.718;2022-11-14T11:47:15;26.20;;;2.90;;
28373;SDS011;15616;40.148;-102.718;2022-11-14T11:49:43;22.33;;;3.45;;
28373;SDS011;15616;40.148;-102.718;2022-11-14T11:52:19;10.60;;;3.05;;
28373;SDS011;15616;40.148;-102.718;2022-11-14T11:57:39;20.88;;;2.90;;
28373;SDS011;15616;40.148;-102.718;2022-11-14T12:00:36;16.70;;;3.22;;
28373;SDS011;15616;40.148;-102.718;2022-11-14T12:03:02;23.45;;;3.17;;
28373;SDS011;15616;40.148;-102.718;2022-11-14T12:08:21;21.83;;;3.40;;
28373;SDS011;15616;40.148;-102.718;2022-11-14T12:11:00;22.98;;;3.08;;
28373;SDS011;15616;40.148;-102.718;2022-11-14T12:16:27;16.40;;;3.00;;
28373;SDS011;15616;40.148;-102.718;2022-11-14T12:24:59;12.40;;;2.63;;
28373;SDS011;15616;40.148;-102.718;2022-11-14T12:27:48;19.48;;;2.92;;
28373;SDS011;15616;40.148;-102.718;2022-11-14T12:30:22;15.00;;;2.83;;
28373;SDS011;15616;40.148;-102.718;2022-11-14T12:33:00;17.55;;;3.28;;
28373;SDS011;15616;40.148;-102.718;2022-11-14T12:35:33;13.07;;;2.78;;
28373;SDS011;15616;40.148;-102.718;2022-11-14T12:38:02;16.70;;;2.80;;
28373;SDS011;15616;40.148;-102.718;2022-11-14T12:40:37;16.52;;;2.83;;
28373;SDS011;15616;40.148;-102.718;2022-11-14T12:43:19;17.80;;;2.95;;
28373;SDS011;15616;40.148;-102.718;2022-11-14T12:50:52;17.25;;;2.92;;
28373;SDS011;15616;40.148;-102.718;2022-11-14T13:10:57;22.50;;;2.80;;
28373;SDS011;15616;40.148;-102.718;2022-11-14T13:13:16;15.00;;;3.05;;
28373;SDS011;15616;40.148;-102.718;2022-11-14T13:16:01;21.58;;;3.03;;
28373;SDS011;15616;40.148;-102.718;2022-11-14T13:22:16;18.52;;;2.95;;
28373;SDS011;15616;40.148;-102.718;2022-11-14T13:27:27;20.15;;;3.33;;
28373;SDS011;15616;40.148;-102.718;2022-11-14T13:29:55;14.13;;;2.83;;
28373;SDS011;15616;40.148;-102.718;2022-11-14T13:32:56;17.80;;;3.20;;
28373;SDS011;15616;40.148;-102.718;2022-11-14T13:35:51;18.50;;;2.63;;
28373;SDS011;15616;40.148;-102.718;2022-11-14T13:38:30;14.85;;;2.70;;
28373;SDS011;15616;40.148;-102.718;2022-11-14T13:47:02;22.77;;;4.07;;
28373;SDS011;15616;40.148;-102.718;2022-11-14T13:52:32;25.20;;;3.30;;
28373;SDS011;15616;40.148;-102.718;2022-11-14T13:55:04;22.67;;;3.45;;
28373;SDS011;15616;40.148;-102.718;2022-11-14T13:57:34;35.95;;;4.32;;
28373;SDS011;15616;40.148;-102.718;2022-11-14T14:00:10;30.20;;;3.58;;
28373;SDS011;15616;40.148;-102.718;2022-11-14T14:10:39;34.67;;;4.22;;
28373;SDS011;15616;40.148;-102.718;2022-11-14T14:13:25;29.00;;;3.80;;
28373;SDS011;15616;40.148;-102.718;2022-11-14T14:16:18;25.45;;;4.43;;
28373;SDS011;15616;40.148;-102.718;2022-11-14T14:21:53;25.42;;;4.07;;
28373;SDS011;15616;40.148;-102.718;2022-11-14T14:24:49;20.95;;;3.45;;
28373;SDS011;15616;40.148;-102.718;2022-11-14T14:27:29;20.55;;;3.58;;
28373;SDS011;15616;40.148;-102.718;2022-11-14T14:30:14;33.90;;;3.65;;
28373;SDS011;15616;40.148;-102.718;2022-11-14T14:32:42;19.70;;;2.80;;
28373;SDS011;15616;40.148;-102.718;2022-11-14T14:37:55;22.92;;;3.20;;
28373;SDS011;15616;40.148;-102.718;2022-11-14T14:40:39;21.45;;;3.25;;
28373;SDS011;15616;40.148;-102.718;2022-11-14T14:43:11;11.95;;;3.10;;
28373;SDS011;15616;40.148;-102.718;2022-11-14T14:45:47;32.67;;;3.22;;
28373;SDS011;15616;40.148;-102.718;2022-11-14T14:48:20;19.92;;;3.22;;
28373;SDS011;15616;40.148;-102.718;2022-11-14T14:50:50;14.68;;;2.70;;
28373;SDS011;15616;40.148;-102.718;2022-11-14T14:53:22;22.27;;;3.50;;
28373;SDS011;15616;40.148;-102.718;2022-11-14T14:56:04;29.65;;;3.58;;
28373;SDS011;15616;40.148;-102.718;2022-11-14T14:58:33;24.23;;;3.30;;
28373;SDS011;15616;40.148;-102.718;2022-11-14T15:01:00;18.30;;;2.70;;
28373;SDS011;15616;40.148;-102.718;2022-11-14T15:03:36;13.40;;;2.78;;
28373;SDS011;15616;40.148;-102.718;2022-11-14T15:06:49;27.98;;;3.13;;
28373;SDS011;15616;40.148;-102.718;2022-11-14T15:08:56;24.80;;;3.60;;
28373;SDS011;15616;40.148;-102.718;2022-11-14T15:11:25;18.42;;;3.42;;
28373;SDS011;15616;40.148;-102.718;2022-11-14T15:13:53;17.92;;;3.65;;
28373;SDS011;15616;40.148;-102.718;2022-11-14T15:16:21;18.42;;;3.15;;
28373;SDS011;15616;40.148;-102.718;2022-11-14T15:18:52;22.38;;;3.42;;
28373;SDS011;15616;40.148;-102.718;2022-11-14T15:26:46;21.35;;;2.80;;
28373;SDS011;15616;40.148;-102.718;2022-11-14T15:29:18;15.95;;;2.88;;
28373;SDS011;15616;40.148;-102.718;2022-11-14T15:31:46;19.08;;;3.35;;
28373;SDS011;15616;40.148;-102.718;2022-11-14T15:34:57;17.35;;;2.50;;
28373;SDS011;15616;40.148;-102.718;2022-11-14T15:39:41;13.27;;;2.92;;
28373;SDS011;15616;40.148;-102.718;2022-11-14T15:42:11;20.75;;;3.45;;
28373;SDS011;15616;40.148;-102.718;2022-11-14T15:50:31;11.27;;;2.85;;
28373;SDS011;15616;40.148;-102.718;2022-11-14T15:52:47;13.27;;;3.08;;
28373;SDS011;15616;40.148;-102.718;2022-11-14T15:55:18;18.17;;;3.20;;
28373;SDS011;15616;40.148;-102.718;2022-11-14T15:57:45;22.17;;;3.05;;
28373;SDS011;15616;40.148;-102.718;2022-11-14T16:00:12;16.92;;;2.80;;
28373;SDS011;15616;40.148;-102.718;2022-11-14T16:02:40;17.08;;;3.20;;
28373;SDS011;15616;40.148;-102.718;2022-11-14T16:05:12;12.02;;;2.88;;
28373;SDS011;15616;40.148;-102.718;2022-11-14T16:07:40;18.15;;;3.13;;